Flight Track Log - Related Links

Times and Time Zones

All times are in EDT time to prevent confusion due to time zone crossing. See the AWE1913 flight status page for this flight to view local times or setup timezone preferences in your user account.

Time Position Orientation Groundspeed Altitude Reporting Facility
EDT Latitude Longitude Course Direction KTS MPH feet Rate Location/Type
Fri 07:29:22 AM 42.2036 -83.3556 90° East 140 161 1,300  Level Cleveland Center
Fri 07:29:44 AM 42.1942 -83.3539 173° South 154 177 2,000 1,429 Climbing FAA TRACON SMA TRACON (SMA)
Fri 07:30:04 AM 42.1758 -83.3489 169° South 184 212 2,300 837 Climbing FAA TRACON SMA TRACON (SMA)
Fri 07:30:27 AM 42.1553 -83.3431 168° South 219 252 2,600 1,814 Climbing FAA TRACON SMA TRACON (SMA)
Fri 07:30:47 AM 42.1364 -83.3383 169° South 224 258 3,600 3,750 Climbing FAA TRACON SMA TRACON (SMA)
Fri 07:31:07 AM 42.1164 -83.3336 170° South 208 239 5,100 4,050 Climbing FAA TRACON SMA TRACON (SMA)
Fri 07:31:27 AM 42.0964 -83.3294 171° South 197 227 6,300 2,595 Climbing FAA TRACON SMA TRACON (SMA)
Fri 07:31:44 AM 42.0853 -83.3183 143° Southeast 217 250 6,700 1,622 Climbing FAA TRACON SMA TRACON (SMA)
Fri 07:32:00 AM 42.2167 -82.9250 90° East  Level FlightAware Approximate
Fri 07:32:04 AM 42.0761 -83.2822 109° East 282 325 7,300  Level FAA TRACON SMA TRACON (SMA)
Fri 07:32:24 AM 42.0814 -83.2475 78° East 317 365 8,100 2,154 Climbing FAA TRACON SMA TRACON (SMA)
Fri 07:32:43 AM 42.0897 -83.2117 73° East 336 387 8,700 2,000 Climbing FAA TRACON SMA TRACON (SMA)
Fri 07:33:00 AM 42.2167 -82.7811 90° East  Level FlightAware Approximate
Fri 07:33:03 AM 42.0978 -83.1750 73° East 333 383 9,400  Level FAA TRACON SMA TRACON (SMA)
Fri 07:33:24 AM 42.1078 -83.1286 74° East 337 388 10,100 1,571 Climbing FAA TRACON SMA TRACON (SMA)
Fri 07:33:45 AM 42.1153 -83.0903 75° East 341 392 10,500 1,171 Climbing FAA TRACON SMA TRACON (SMA)
Fri 07:34:00 AM 42.2167 -82.6371 90° East  Level FlightAware Approximate
Fri 07:34:05 AM 42.1236 -83.0381 78° East 369 425 10,900  Level FAA TRACON SMA TRACON (SMA)
Fri 07:34:25 AM 42.1314 -82.9944 76° East 398 458 11,200 1,200 Climbing FAA TRACON SMA TRACON (SMA)
Fri 07:34:45 AM 42.1394 -82.9486 77° East 412 474 11,700 2,000 Climbing FAA TRACON SMA TRACON (SMA)
Fri 07:35:04 AM 42.1494 -82.8906 77° East 416 479 12,500 2,308 Climbing FAA TRACON SMA TRACON (SMA)
Fri 07:35:24 AM 42.1578 -82.8431 77° East 420 483 13,200 2,100 Climbing FAA TRACON SMA TRACON (SMA)
Fri 07:35:44 AM 42.1661 -82.7953 77° East 424 488 13,900 2,250 Climbing FAA TRACON SMA TRACON (SMA)
Fri 07:36:04 AM 42.1767 -82.7356 77° East 427 491 14,700 1,846 Climbing FAA TRACON SMA TRACON (SMA)
Fri 07:36:23 AM 42.1850 -82.6864 77° East 433 498 15,100 2,000 Climbing FAA TRACON SMA TRACON (SMA)
Fri 07:36:43 AM 42.1886 -82.6356 85° East 433 498 16,000 2,634 Climbing FAA TRACON SMA TRACON (SMA)
Fri 07:37:04 AM 42.1797 -82.5789 102° East 394 453 16,900 2,250 Climbing FAA TRACON SMA TRACON (SMA)
Fri 07:37:23 AM 42.1628 -82.5406 121° Southeast 381 438 17,500 1,846 Climbing FAA TRACON SMA TRACON (SMA)
Fri 07:37:43 AM 42.1456 -82.5028 122° Southeast 384 442 18,100 2,927 Climbing FAA TRACON SMA TRACON (SMA)
Fri 07:38:04 AM 42.1236 -82.4556 122° Southeast 385 443 19,500 2,700 Climbing FAA TRACON SMA TRACON (SMA)
Fri 07:38:23 AM 42.1064 -82.4181 122° Southeast 384 442 19,900 923 Climbing FAA TRACON SMA TRACON (SMA)
Fri 07:38:43 AM 42.0889 -82.3794 121° Southeast 388 447 20,100 878 Climbing FAA TRACON SMA TRACON (SMA)
Fri 07:39:04 AM 42.0661 -82.3289 121° Southeast 405 466 20,500 1,200 Climbing FAA TRACON SMA TRACON (SMA)
Fri 07:39:23 AM 42.0475 -82.2883 122° Southeast 411 473 20,900 1,077 Climbing FAA TRACON SMA TRACON (SMA)
Fri 07:39:43 AM 42.0289 -82.2475 122° Southeast 417 480 21,200 1,350 Climbing FAA TRACON SMA TRACON (SMA)
Fri 07:40:03 AM 42.0100 -82.2061 122° Southeast 417 480 21,800 1,574 Climbing FAA TRACON SMA TRACON (SMA)
Fri 07:40:44 AM 41.9664 -82.1192 124° Southeast 414 476 22,800 1,307 Climbing Cleveland Center
Fri 07:41:44 AM 41.9056 -81.9864 122° Southeast 420 483 24,000 1,150 Climbing Cleveland Center
Fri 07:42:44 AM 41.8342 -81.8372 123° Southeast 425 489 25,100 1,150 Climbing Cleveland Center
Fri 07:43:44 AM 41.7711 -81.6967 121° Southeast 431 496 26,300 1,091 Climbing Cleveland Center
Fri 07:44:45 AM 41.7036 -81.5594 123° Southeast 437 503 27,300 1,140 Climbing Cleveland Center
Fri 07:45:45 AM 41.6381 -81.4167 122° Southeast 437 503 28,600 1,300 Climbing Cleveland Center
Fri 07:46:45 AM 41.5722 -81.2797 123° Southeast 437 503 29,900 1,059 Climbing Cleveland Center
Fri 07:47:44 AM 41.5019 -81.1458 125° Southeast 437 503 30,700 958 Climbing Cleveland Center
Fri 07:48:44 AM 41.4294 -81.0428 133° Southeast 432 497 31,800 1,000 Climbing Cleveland Center
Fri 07:49:44 AM 41.3486 -80.9289 133° Southeast 427 491 32,700 595 Climbing Cleveland Center
Fri 07:50:45 AM 41.2656 -80.8153 134° Southeast 427 491 33,000 150 Climbing Cleveland Center
Fri 07:51:44 AM 41.1803 -80.6989 134° Southeast 434 499 33,000  Level Cleveland Center
Fri 07:52:45 AM 41.0867 -80.5667 133° Southeast 434 499 33,000  Level Cleveland Center
Fri 07:53:45 AM 41.0053 -80.4539 134° Southeast 434 499 33,000  Level Cleveland Center
Fri 07:54:45 AM 40.9194 -80.3386 135° Southeast 434 499 33,000  Level Cleveland Center
Fri 07:55:44 AM 40.8422 -80.2317 134° Southeast 434 499 33,000  Level Cleveland Center
Fri 07:56:44 AM 40.7769 -80.0842 120° Southeast 444 511 33,000  Level Cleveland Center
Fri 07:57:44 AM 40.7178 -79.9119 114° Southeast 455 524 33,000  Level Cleveland Center
Fri 07:58:45 AM 40.6667 -79.7756 116° Southeast 461 531 33,000  Level Cleveland Center
Fri 07:59:45 AM 40.6092 -79.6203 116° Southeast 461 531 33,000  Level Cleveland Center
Fri 08:00:45 AM 40.5558 -79.4628 114° Southeast 467 537 33,000  Level Cleveland Center
Fri 08:01:45 AM 40.5247 -79.2883 103° East 467 537 33,000  Level Cleveland Center
Fri 08:02:45 AM 40.4997 -79.1142 101° East 478 550 33,000  Level Cleveland Center
Fri 08:03:45 AM 40.4700 -78.9211 101° East 490 564 33,000 -33 Level Cleveland Center
Fri 08:05:46 AM 40.4125 -78.5708 102° East 488 562 32,900 -659 Descending New York Center
Fri 08:06:47 AM 40.3842 -78.3958 102° East 488 562 31,000 -2,033 Descending New York Center
Fri 08:07:47 AM 40.3558 -78.2211 102° East 488 562 28,800 -2,479 Descending New York Center
Fri 08:08:48 AM 40.3267 -78.0517 103° East 482 555 26,000 -1,916 Descending New York Center
Fri 08:09:46 AM 40.3114 -77.8922 97° East 463 533 25,000 -958 Descending New York Center
Fri 08:10:47 AM 40.3108 -77.7286 90° East 451 519 24,100 -878 Descending New York Center
Fri 08:11:49 AM 40.3094 -77.5706 91° East 439 505 23,200 -950 Descending New York Center
Fri 08:12:47 AM 40.3092 -77.4317 90° East 439 505 22,200 -966 Descending New York Center
Fri 08:13:47 AM 40.3031 -77.2758 93° East 433 498 21,300 -958 Descending New York Center
Fri 08:14:46 AM 40.3028 -77.1289 90° East 422 486 20,300 -942 Descending New York Center
Fri 08:15:48 AM 40.2811 -76.9881 101° East 406 467 19,400 -934 Descending New York Center
Fri 08:16:48 AM 40.2528 -76.8522 105° East 389 448 18,400 -942 Descending New York Center
Fri 08:17:49 AM 40.2219 -76.7217 107° East 384 442 17,500 -1,008 Descending New York Center
Fri 08:18:47 AM 40.1875 -76.5747 107° East 379 436 16,400 -1,059 Descending New York Center
Fri 08:19:48 AM 40.1564 -76.4444 107° East 379 436 15,400 -980 Descending New York Center
Fri 08:20:25 AM 40.1375 -76.3631 107° East 372 428 14,800 -947 Descending FAA TRACON SMA TRACON (SMA)
Fri 08:20:45 AM 40.1269 -76.3228 109° East 371 427 14,500 -1,050 Descending FAA TRACON SMA TRACON (SMA)
Fri 08:21:05 AM 40.1175 -76.2719 104° East 374 430 14,100 -1,050 Descending FAA TRACON SMA TRACON (SMA)
Fri 08:21:25 AM 40.1161 -76.2319 93° East 380 437 13,800 -1,500 Descending FAA TRACON SMA TRACON (SMA)
Fri 08:21:45 AM 40.1125 -76.1875 96° East 368 423 13,100 -1,950 Descending FAA TRACON SMA TRACON (SMA)
Fri 08:22:05 AM 40.1089 -76.1356 95° East 372 428 12,500 -1,500 Descending FAA TRACON SMA TRACON (SMA)
Fri 08:22:25 AM 40.1061 -76.0944 95° East 369 425 12,100 -1,350 Descending FAA TRACON SMA TRACON (SMA)
Fri 08:22:45 AM 40.1039 -76.0531 94° East 369 425 11,600 -1,500 Descending FAA TRACON SMA TRACON (SMA)
Fri 08:23:05 AM 40.1000 -76.0036 96° East 364 419 11,100 -1,500 Descending FAA TRACON SMA TRACON (SMA)
Fri 08:23:25 AM 40.0972 -75.9628 95° East 360 414 10,600 -1,350 Descending FAA TRACON SMA TRACON (SMA)
Fri 08:23:45 AM 40.0947 -75.9242 95° East 355 409 10,200 -1,350 Descending FAA TRACON SMA TRACON (SMA)
Fri 08:24:05 AM 40.0925 -75.8858 94° East 349 402 9,700 -1,500 Descending FAA TRACON SMA TRACON (SMA)
Fri 08:24:25 AM 40.0894 -75.8414 95° East 327 376 9,200 -1,500 Descending FAA TRACON SMA TRACON (SMA)
Fri 08:24:45 AM 40.0867 -75.8072 96° East 308 354 8,700 -1,650 Descending FAA TRACON SMA TRACON (SMA)
Fri 08:25:05 AM 40.0836 -75.7656 95° East 304 350 8,100 -1,050 Descending FAA TRACON SMA TRACON (SMA)
Fri 08:25:25 AM 40.0811 -75.7311 95° East 304 350 8,000 -150 Descending FAA TRACON SMA TRACON (SMA)
Fri 08:25:45 AM 40.0797 -75.6983 93° East 297 342 8,000  Level FAA TRACON SMA TRACON (SMA)
Fri 08:26:05 AM 40.0789 -75.6689 92° East 269 310 8,000 -600 Level FAA TRACON SMA TRACON (SMA)
Fri 08:26:25 AM 40.0772 -75.6331 93° East 260 299 7,600 -1,200 Descending FAA TRACON SMA TRACON (SMA)
Fri 08:26:45 AM 40.0758 -75.6044 94° East 257 296 7,200 -1,200 Descending FAA TRACON SMA TRACON (SMA)
Fri 08:27:05 AM 40.0736 -75.5783 96° East 253 291 6,800 -1,200 Descending FAA TRACON SMA TRACON (SMA)
Fri 08:27:25 AM 40.0725 -75.5414 92° East 252 290 6,400 -1,200 Descending FAA TRACON SMA TRACON (SMA)
Fri 08:27:45 AM 40.0711 -75.5133 94° East 251 289 6,000 -600 Descending FAA TRACON SMA TRACON (SMA)
Fri 08:28:05 AM 40.0697 -75.4858 94° East 248 285 6,000  Level FAA TRACON SMA TRACON (SMA)
Fri 08:28:25 AM 40.0681 -75.4525 94° East 241 277 6,000  Level FAA TRACON SMA TRACON (SMA)
Fri 08:28:45 AM 40.0633 -75.4286 104° East 223 257 6,000  Level FAA TRACON SMA TRACON (SMA)
Fri 08:29:05 AM 40.0503 -75.4161 144° Southeast 192 221 6,000  Level FAA TRACON SMA TRACON (SMA)
Fri 08:29:25 AM 40.0322 -75.4100 165° South 174 200 6,000  Level FAA TRACON SMA TRACON (SMA)
Fri 08:29:45 AM 40.0175 -75.4058 168° South 174 200 6,000  Level FAA TRACON SMA TRACON (SMA)
Fri 08:30:05 AM 40.0031 -75.4011 166° South 175 201 6,000  Level FAA TRACON SMA TRACON (SMA)
Fri 08:30:25 AM 39.9847 -75.3964 169° South 177 204 6,000  Level FAA TRACON SMA TRACON (SMA)
Fri 08:30:48 AM 39.9694 -75.3908 164° South 178 205 6,000  Level FAA TRACON SMA TRACON (SMA)
Fri 08:31:08 AM 39.9508 -75.3850 166° South 178 205 6,000  Level FAA TRACON SMA TRACON (SMA)
Fri 08:31:25 AM 39.9367 -75.3886 191° South 172 198 6,000  Level FAA TRACON SMA TRACON (SMA)
Fri 08:31:45 AM 39.9294 -75.4047 240° Southwest 169 194 6,000  Level FAA TRACON SMA TRACON (SMA)
Fri 08:32:05 AM 39.9253 -75.4236 254° West 177 204 6,000  Level FAA TRACON SMA TRACON (SMA)
Fri 08:32:25 AM 39.9208 -75.4475 256° West 173 199 6,000 -450 Level FAA TRACON SMA TRACON (SMA)
Fri 08:32:45 AM 39.9161 -75.4644 250° West 166 191 5,700 -900 Descending FAA TRACON SMA TRACON (SMA)
Fri 08:33:05 AM 39.9117 -75.4819 252° West 165 190 5,400 -900 Descending FAA TRACON SMA TRACON (SMA)
Fri 08:33:25 AM 39.9069 -75.5031 254° West 160 184 5,100 -600 Descending FAA TRACON SMA TRACON (SMA)
Fri 08:33:45 AM 39.9028 -75.5200 252° West 160 184 5,000 -300 Descending FAA TRACON SMA TRACON (SMA)
Fri 08:34:05 AM 39.9003 -75.5372 259° West 161 185 4,900 -900 Descending FAA TRACON SMA TRACON (SMA)
Fri 08:34:25 AM 39.8950 -75.5592 253° West 161 185 4,400 -1,200 Descending FAA TRACON SMA TRACON (SMA)
Fri 08:34:45 AM 39.8914 -75.5764 255° West 159 183 4,100 -600 Descending FAA TRACON SMA TRACON (SMA)
Fri 08:35:05 AM 39.8881 -75.5933 256° West 157 181 4,000 -150 Descending FAA TRACON SMA TRACON (SMA)
Fri 08:35:25 AM 39.8806 -75.6122 243° Southwest 165 190 4,000  Level FAA TRACON SMA TRACON (SMA)
Fri 08:35:45 AM 39.8686 -75.6139 186° South 168 193 4,000 -300 Level FAA TRACON SMA TRACON (SMA)
Fri 08:36:05 AM 39.8561 -75.6042 149° Southeast 164 189 3,800 -1,050 Descending FAA TRACON SMA TRACON (SMA)
Fri 08:36:25 AM 39.8414 -75.5914 146° Southeast 163 188 3,300 -1,200 Descending FAA TRACON SMA TRACON (SMA)
Fri 08:36:45 AM 39.8297 -75.5808 145° Southeast 166 191 3,000 -450 Descending FAA TRACON SMA TRACON (SMA)
Fri 08:37:05 AM 39.8189 -75.5669 135° Southeast 187 215 3,000  Level FAA TRACON SMA TRACON (SMA)
Fri 08:37:25 AM 39.8150 -75.5383 100° East 214 246 3,000  Level FAA TRACON SMA TRACON (SMA)

Login

Don't have an account? Register now (free) for customized features, flight alerts, and more!